createdAt,value
2022-08-31T00:00:11.119Z,100.00
2022-08-31T00:03:16.498Z,100.00
2022-08-31T00:05:43.638Z,100.00
2022-08-31T00:08:10.486Z,100.00
2022-08-31T00:10:42.827Z,100.00
2022-08-31T00:13:13.072Z,100.00
2022-08-31T00:15:40.104Z,100.00
2022-08-31T00:18:06.966Z,100.00
2022-08-31T00:20:35.076Z,100.00
2022-08-31T00:23:07.242Z,100.00
2022-08-31T00:25:35.265Z,100.00
2022-08-31T00:28:03.919Z,100.00
2022-08-31T00:30:32.163Z,100.00
2022-08-31T00:32:59.650Z,100.00
2022-08-31T00:35:29.039Z,100.00
2022-08-31T00:37:56.202Z,100.00
2022-08-31T00:40:23.592Z,100.00
2022-08-31T00:42:50.748Z,100.00
2022-08-31T00:45:17.579Z,100.00
2022-08-31T00:47:44.482Z,100.00
2022-08-31T00:50:15.057Z,100.00
2022-08-31T00:52:46.540Z,100.00
2022-08-31T00:55:21.510Z,100.00
2022-08-31T00:57:51.661Z,100.00
2022-08-31T01:00:24.998Z,100.00
2022-08-31T01:02:52.205Z,100.00
2022-08-31T01:05:19.719Z,100.00
2022-08-31T01:07:50.915Z,100.00
2022-08-31T01:10:20.689Z,100.00
2022-08-31T01:12:50.872Z,100.00
2022-08-31T01:15:18.579Z,100.00
2022-08-31T01:17:48.383Z,100.00
2022-08-31T01:20:48.977Z,100.00
2022-08-31T01:23:25.095Z,100.00
2022-08-31T01:25:55.439Z,100.00
2022-08-31T01:28:22.925Z,100.00
2022-08-31T01:31:07.137Z,100.00
2022-08-31T01:33:37.383Z,100.00
2022-08-31T01:36:06.727Z,100.00
2022-08-31T01:38:35.759Z,100.00
2022-08-31T01:41:03.744Z,100.00
2022-08-31T01:43:34.064Z,100.00
2022-08-31T01:46:10.442Z,100.00
2022-08-31T01:48:41.338Z,100.00
2022-08-31T01:51:12.327Z,100.00
2022-08-31T01:53:42.153Z,100.00
2022-08-31T01:56:19.678Z,100.00
2022-08-31T01:58:46.705Z,100.00
2022-08-31T02:01:26.312Z,100.00
2022-08-31T02:04:02.873Z,100.00
2022-08-31T02:06:30.486Z,100.00
2022-08-31T02:08:57.373Z,100.00
2022-08-31T02:11:24.320Z,100.00
2022-08-31T02:13:51.161Z,100.00
2022-08-31T02:16:18.089Z,100.00
2022-08-31T02:18:45.259Z,100.00
2022-08-31T02:21:13.634Z,100.00
2022-08-31T02:23:41.509Z,100.00
2022-08-31T02:26:09.507Z,100.00
2022-08-31T02:28:36.833Z,100.00
2022-08-31T02:31:04.635Z,100.00
2022-08-31T02:33:31.819Z,100.00
2022-08-31T02:35:58.800Z,100.00
2022-08-31T02:38:25.695Z,100.00
2022-08-31T02:40:54.386Z,100.00
2022-08-31T02:43:24.963Z,100.00
2022-08-31T02:45:53.543Z,100.00
2022-08-31T02:48:21.465Z,100.00
2022-08-31T02:50:51.281Z,100.00
2022-08-31T02:53:21.006Z,100.00
2022-08-31T02:55:48.943Z,100.00
2022-08-31T02:58:19.549Z,100.00
2022-08-31T03:00:49.089Z,100.00
2022-08-31T03:03:16.673Z,100.00
2022-08-31T03:05:43.580Z,100.00
2022-08-31T03:08:10.715Z,100.00
2022-08-31T03:10:37.533Z,100.00
2022-08-31T03:13:04.419Z,100.00
2022-08-31T03:15:31.675Z,100.00
2022-08-31T03:17:58.566Z,100.00
2022-08-31T03:20:27.256Z,100.00
2022-08-31T03:22:54.782Z,100.00
2022-08-31T03:25:22.885Z,100.00
2022-08-31T03:27:50.392Z,100.00
2022-08-31T03:30:21.639Z,100.00
2022-08-31T03:32:49.096Z,100.00
2022-08-31T03:35:18.418Z,100.00
2022-08-31T03:37:46.119Z,100.00
2022-08-31T03:40:13.375Z,100.00
2022-08-31T03:42:41.113Z,100.00
2022-08-31T03:45:08.995Z,100.00
2022-08-31T03:47:37.116Z,100.00
2022-08-31T03:50:12.577Z,100.00
2022-08-31T03:52:39.715Z,100.00
2022-08-31T03:55:07.239Z,100.00
2022-08-31T03:57:34.933Z,100.00
2022-08-31T04:00:02.305Z,100.00
2022-08-31T04:02:31.102Z,100.00
2022-08-31T04:05:01.212Z,100.00
2022-08-31T04:07:28.075Z,100.00
2022-08-31T04:09:56.082Z,100.00
2022-08-31T04:12:23.131Z,100.00
2022-08-31T04:14:49.946Z,100.00
2022-08-31T04:17:16.807Z,100.00
2022-08-31T04:19:43.925Z,100.00
2022-08-31T04:22:10.734Z,100.00
2022-08-31T04:24:37.550Z,100.00
2022-08-31T04:27:05.014Z,100.00
2022-08-31T04:29:32.051Z,100.00
2022-08-31T04:31:58.906Z,100.00
2022-08-31T04:34:26.442Z,100.00
2022-08-31T04:36:53.270Z,100.00
2022-08-31T04:39:21.115Z,100.00
2022-08-31T04:41:51.363Z,100.00
2022-08-31T04:44:20.225Z,100.00
2022-08-31T04:46:47.451Z,100.00
2022-08-31T04:49:15.247Z,100.00
2022-08-31T04:51:44.499Z,100.00
2022-08-31T04:54:13.988Z,100.00
2022-08-31T04:56:44.408Z,100.00
2022-08-31T04:59:14.318Z,100.00
2022-08-31T05:01:43.737Z,100.00
2022-08-31T05:04:13.823Z,100.00
2022-08-31T05:06:42.781Z,100.00
2022-08-31T05:09:16.727Z,100.00
2022-08-31T05:11:44.787Z,100.00
2022-08-31T05:14:11.605Z,100.00
2022-08-31T05:16:40.684Z,100.00
2022-08-31T05:19:08.586Z,100.00
2022-08-31T05:21:38.081Z,100.00
2022-08-31T05:24:09.459Z,100.00
2022-08-31T05:26:42.287Z,100.00
2022-08-31T05:29:10.282Z,100.00
2022-08-31T05:31:38.062Z,100.00
2022-08-31T05:34:05.875Z,100.00
2022-08-31T05:36:34.084Z,100.00
2022-08-31T05:39:02.292Z,100.00
2022-08-31T05:41:30.599Z,100.00
2022-08-31T05:43:57.938Z,100.00
2022-08-31T05:46:25.001Z,100.00
2022-08-31T05:48:51.935Z,100.00
2022-08-31T05:51:19.361Z,100.00
2022-08-31T05:53:47.612Z,100.00
2022-08-31T05:56:19.254Z,100.00
2022-08-31T05:58:47.516Z,100.00
2022-08-31T06:01:25.374Z,100.00
2022-08-31T06:03:54.347Z,100.00
2022-08-31T06:06:21.409Z,100.00
2022-08-31T06:08:51.955Z,100.00
2022-08-31T06:11:21.918Z,100.00
2022-08-31T06:13:52.382Z,100.00
2022-08-31T06:16:20.620Z,100.00
2022-08-31T06:18:50.945Z,100.00
2022-08-31T06:21:21.196Z,100.00
2022-08-31T06:23:50.098Z,100.00
2022-08-31T06:26:19.030Z,100.00
2022-08-31T06:28:49.158Z,100.00
2022-08-31T06:31:26.896Z,100.00
2022-08-31T06:33:55.892Z,100.00
2022-08-31T06:36:26.303Z,100.00
2022-08-31T06:38:56.553Z,100.00
2022-08-31T06:41:27.173Z,100.00
2022-08-31T06:43:54.686Z,100.00
2022-08-31T06:46:23.861Z,100.00
2022-08-31T06:48:55.016Z,98.89
2022-08-31T06:51:22.631Z,98.06
2022-08-31T06:53:49.602Z,96.66
2022-08-31T06:56:20.429Z,95.89
2022-08-31T06:58:54.131Z,96.67
2022-08-31T07:01:36.001Z,97.49
2022-08-31T07:04:09.043Z,97.97
2022-08-31T07:06:39.109Z,92.17
2022-08-31T07:09:09.591Z,86.52
2022-08-31T07:11:37.494Z,86.05
2022-08-31T07:14:09.131Z,81.90
2022-08-31T07:16:36.173Z,82.11
2022-08-31T07:19:04.097Z,83.23
2022-08-31T07:21:39.156Z,83.14
2022-08-31T07:24:06.878Z,82.35
2022-08-31T07:26:45.206Z,81.83
2022-08-31T07:29:15.056Z,82.25
2022-08-31T07:31:48.858Z,82.94
2022-08-31T07:34:21.094Z,84.25
2022-08-31T07:37:06.936Z,85.91
2022-08-31T07:39:52.453Z,87.26
2022-08-31T07:42:26.973Z,87.83
2022-08-31T07:44:54.637Z,88.61
2022-08-31T07:47:22.961Z,89.59
2022-08-31T07:49:52.744Z,90.94
2022-08-31T07:52:24.091Z,91.51
2022-08-31T07:54:53.225Z,92.71
2022-08-31T07:57:22.061Z,92.98
2022-08-31T07:59:54.730Z,93.46
2022-08-31T08:02:23.654Z,89.94
2022-08-31T08:04:51.064Z,88.92
2022-08-31T08:07:18.499Z,88.11
2022-08-31T08:09:48.509Z,88.00
2022-08-31T08:12:15.316Z,87.75
2022-08-31T08:14:42.192Z,87.18
2022-08-31T08:17:09.303Z,88.82
2022-08-31T08:19:36.180Z,89.71
2022-08-31T08:22:04.208Z,90.19
2022-08-31T08:24:31.789Z,91.04
2022-08-31T08:26:59.281Z,90.12
2022-08-31T08:29:27.296Z,90.26
2022-08-31T08:31:56.262Z,91.39
2022-08-31T08:34:31.569Z,90.44
2022-08-31T08:37:00.354Z,90.78
2022-08-31T08:39:27.778Z,91.33
2022-08-31T08:41:57.070Z,91.68
2022-08-31T08:44:28.320Z,92.33
2022-08-31T08:46:59.124Z,92.63
2022-08-31T08:49:29.041Z,93.19
2022-08-31T08:51:59.181Z,92.75
2022-08-31T08:54:35.737Z,92.10
2022-08-31T08:57:10.025Z,89.28
2022-08-31T08:59:37.172Z,90.09
2022-08-31T09:02:06.916Z,89.20
2022-08-31T09:04:52.518Z,88.34
2022-08-31T09:07:31.624Z,87.39
2022-08-31T09:10:13.044Z,87.46
2022-08-31T09:12:47.324Z,86.91
2022-08-31T09:15:57.491Z,87.18
2022-08-31T09:18:56.598Z,84.59
2022-08-31T09:21:33.701Z,86.52
2022-08-31T09:24:07.880Z,84.53
2022-08-31T09:27:18.451Z,82.57
2022-08-31T09:29:54.595Z,82.98
2022-08-31T09:32:32.131Z,82.25
2022-08-31T09:35:05.254Z,80.43
2022-08-31T09:37:38.219Z,79.78
2022-08-31T09:40:23.368Z,77.92
2022-08-31T09:43:05.951Z,77.08
2022-08-31T09:45:41.392Z,76.03
2022-08-31T09:48:09.406Z,74.76
2022-08-31T09:50:47.502Z,73.93
2022-08-31T09:54:00.743Z,72.09
2022-08-31T09:56:28.468Z,69.04
2022-08-31T09:59:05.055Z,67.27
2022-08-31T10:01:45.227Z,67.42
2022-08-31T10:04:27.947Z,66.30
2022-08-31T10:07:19.474Z,66.10
2022-08-31T10:09:57.935Z,64.77
2022-08-31T10:12:49.587Z,61.38
2022-08-31T10:15:32.083Z,60.08
2022-08-31T10:18:13.906Z,59.83
2022-08-31T10:20:48.478Z,57.53
2022-08-31T10:23:25.317Z,57.96
2022-08-31T10:25:59.013Z,54.07
2022-08-31T10:28:32.173Z,50.54
2022-08-31T10:31:21.357Z,50.08
2022-08-31T10:34:30.279Z,48.97
2022-08-31T10:37:03.903Z,47.20
2022-08-31T10:39:42.918Z,44.24
2022-08-31T10:42:21.716Z,43.70
2022-08-31T10:44:56.898Z,37.89
2022-08-31T10:47:33.613Z,39.16
2022-08-31T10:50:03.723Z,38.80
2022-08-31T10:52:38.648Z,37.10
2022-08-31T10:55:18.227Z,37.26
2022-08-31T10:58:12.610Z,38.82
2022-08-31T11:01:04.867Z,39.82
2022-08-31T11:04:20.028Z,41.10
2022-08-31T11:07:14.935Z,40.77
2022-08-31T11:09:56.604Z,40.79
2022-08-31T11:12:28.346Z,41.69
2022-08-31T11:15:28.919Z,41.71
2022-08-31T11:17:55.999Z,41.59
2022-08-31T11:20:55.056Z,42.44
2022-08-31T11:23:30.140Z,43.07
2022-08-31T11:26:41.245Z,43.13
2022-08-31T11:29:28.907Z,43.49
2022-08-31T11:32:03.932Z,43.20
2022-08-31T11:34:47.115Z,44.44
2022-08-31T11:37:56.100Z,40.89
2022-08-31T11:40:59.922Z,39.87
2022-08-31T11:43:32.441Z,39.54
2022-08-31T11:46:27.866Z,37.59
2022-08-31T11:48:55.177Z,36.68
2022-08-31T11:51:40.665Z,36.08
2022-08-31T11:54:14.271Z,37.19
2022-08-31T11:56:47.523Z,37.61
2022-08-31T11:59:38.266Z,39.02
2022-08-31T12:02:20.568Z,36.90
2022-08-31T12:04:52.309Z,34.85
2022-08-31T12:07:43.652Z,32.25
2022-08-31T12:10:28.896Z,31.60
2022-08-31T12:13:09.442Z,31.00
2022-08-31T12:15:36.319Z,30.71
2022-08-31T12:18:35.236Z,30.54
2022-08-31T12:21:52.733Z,28.82
2022-08-31T12:24:49.089Z,29.55
2022-08-31T12:27:41.068Z,29.82
2022-08-31T12:30:19.327Z,30.11
2022-08-31T12:32:57.699Z,31.39
2022-08-31T12:35:27.358Z,32.61
2022-08-31T12:38:01.832Z,33.15
2022-08-31T12:40:33.781Z,33.12
2022-08-31T12:43:03.016Z,33.15
2022-08-31T12:46:00.318Z,32.72
2022-08-31T12:48:49.154Z,32.71
2022-08-31T12:51:45.175Z,32.87
2022-08-31T12:54:38.347Z,30.63
2022-08-31T12:57:55.667Z,29.12
2022-08-31T13:00:39.416Z,28.51
2022-08-31T13:03:18.323Z,28.09
2022-08-31T13:06:08.006Z,29.67
2022-08-31T13:08:45.562Z,29.40
2022-08-31T13:11:13.584Z,28.99
2022-08-31T13:13:40.681Z,29.54
2022-08-31T13:16:08.504Z,29.64
2022-08-31T13:18:36.580Z,30.53
2022-08-31T13:21:05.943Z,31.17
2022-08-31T13:23:40.923Z,31.28
2022-08-31T13:26:20.714Z,31.02
2022-08-31T13:28:51.024Z,30.61
2022-08-31T13:31:32.029Z,31.27
2022-08-31T13:34:07.727Z,30.97
2022-08-31T13:36:51.759Z,31.37
2022-08-31T13:39:30.101Z,30.86
2022-08-31T13:42:12.613Z,29.16
2022-08-31T13:44:44.203Z,29.82
2022-08-31T13:47:22.055Z,29.33
2022-08-31T13:49:53.295Z,29.07
2022-08-31T13:52:26.474Z,29.86
2022-08-31T13:55:08.164Z,30.03
2022-08-31T13:57:38.569Z,30.14
2022-08-31T14:00:34.499Z,30.25
2022-08-31T14:03:32.087Z,31.03
2022-08-31T14:06:24.064Z,31.17
2022-08-31T14:09:17.285Z,32.04
2022-08-31T14:11:53.555Z,32.46
2022-08-31T14:14:29.977Z,32.62
2022-08-31T14:17:01.395Z,32.60
2022-08-31T14:19:33.556Z,32.81
2022-08-31T14:22:16.634Z,32.69
2022-08-31T14:24:44.157Z,32.29
2022-08-31T14:27:13.546Z,33.15
2022-08-31T14:29:42.095Z,33.99
2022-08-31T14:32:09.150Z,33.67
2022-08-31T14:34:36.785Z,33.50
2022-08-31T14:37:19.798Z,33.59
2022-08-31T14:39:53.761Z,33.73
2022-08-31T14:42:25.713Z,33.93
2022-08-31T14:45:03.141Z,34.11
2022-08-31T14:47:34.332Z,34.39
2022-08-31T14:50:05.816Z,34.39
2022-08-31T14:52:38.547Z,35.21
2022-08-31T14:55:09.168Z,35.55
2022-08-31T14:57:38.455Z,35.18
2022-08-31T15:00:06.801Z,35.74
2022-08-31T15:02:34.871Z,35.92
2022-08-31T15:05:09.471Z,36.09
2022-08-31T15:07:39.314Z,35.73
2022-08-31T15:10:08.419Z,36.29
2022-08-31T15:12:35.868Z,36.45
2022-08-31T15:15:03.253Z,36.34
2022-08-31T15:17:33.914Z,36.84
2022-08-31T15:20:03.684Z,36.73
2022-08-31T15:22:31.403Z,37.01
2022-08-31T15:24:58.335Z,37.12
2022-08-31T15:27:29.021Z,37.27
2022-08-31T15:30:01.396Z,37.49
2022-08-31T15:32:28.258Z,37.74
2022-08-31T15:34:58.224Z,37.58
2022-08-31T15:37:31.957Z,37.77
2022-08-31T15:40:02.079Z,38.12
2022-08-31T15:42:36.751Z,37.58
2022-08-31T15:45:04.590Z,37.96
2022-08-31T15:47:53.823Z,38.21
2022-08-31T15:50:31.764Z,38.57
2022-08-31T15:53:08.992Z,38.76
2022-08-31T15:55:40.680Z,39.38
2022-08-31T15:58:09.605Z,39.79
2022-08-31T16:00:37.462Z,39.84
2022-08-31T16:03:06.147Z,39.58
2022-08-31T16:05:35.804Z,39.94
2022-08-31T16:08:03.282Z,39.94
2022-08-31T16:10:30.870Z,39.74
2022-08-31T16:12:58.047Z,40.41
2022-08-31T16:15:25.792Z,40.46
2022-08-31T16:17:57.257Z,40.69
2022-08-31T16:20:27.451Z,40.05
2022-08-31T16:22:55.536Z,39.99
2022-08-31T16:25:22.452Z,40.04
2022-08-31T16:27:49.899Z,40.72
2022-08-31T16:30:16.744Z,41.25
2022-08-31T16:32:45.727Z,41.59
2022-08-31T16:35:14.278Z,41.21
2022-08-31T16:37:41.064Z,41.74
2022-08-31T16:40:08.913Z,41.66
2022-08-31T16:42:36.043Z,41.92
2022-08-31T16:45:03.103Z,41.96
2022-08-31T16:47:29.970Z,42.42
2022-08-31T16:49:59.985Z,42.21
2022-08-31T16:52:27.454Z,42.19
2022-08-31T16:54:57.385Z,42.66
2022-08-31T16:57:28.374Z,42.31
2022-08-31T16:59:57.063Z,42.68
2022-08-31T17:02:24.805Z,42.89
2022-08-31T17:04:53.952Z,43.01
2022-08-31T17:07:23.512Z,43.19
2022-08-31T17:09:50.996Z,43.67
2022-08-31T17:12:21.642Z,43.76
2022-08-31T17:14:52.532Z,44.55
2022-08-31T17:17:22.923Z,44.12
2022-08-31T17:19:50.141Z,44.43
2022-08-31T17:22:24.362Z,44.69
2022-08-31T17:24:56.418Z,44.48
2022-08-31T17:27:24.887Z,44.78
2022-08-31T17:29:53.981Z,45.23
2022-08-31T17:32:24.953Z,45.32
2022-08-31T17:34:54.466Z,44.99
2022-08-31T17:37:32.872Z,44.98
2022-08-31T17:40:00.472Z,45.27
2022-08-31T17:42:28.259Z,45.42
2022-08-31T17:44:56.698Z,45.68
2022-08-31T17:47:25.645Z,45.65
2022-08-31T17:49:53.698Z,46.10
2022-08-31T17:52:21.809Z,46.38
2022-08-31T17:54:51.314Z,46.83
2022-08-31T17:57:22.313Z,47.04
2022-08-31T17:59:49.578Z,47.69
2022-08-31T18:02:21.214Z,47.92
2022-08-31T18:04:49.115Z,48.85
2022-08-31T18:07:16.087Z,49.89
2022-08-31T18:09:45.688Z,50.54
2022-08-31T18:12:13.723Z,50.84
2022-08-31T18:14:41.583Z,51.72
2022-08-31T18:17:12.657Z,52.53
2022-08-31T18:19:39.890Z,54.30
2022-08-31T18:22:07.060Z,55.28
2022-08-31T18:24:36.581Z,57.10
2022-08-31T18:27:07.193Z,58.45
2022-08-31T18:29:38.913Z,60.31
2022-08-31T18:32:07.320Z,62.56
2022-08-31T18:34:37.111Z,64.45
2022-08-31T18:37:04.810Z,66.59
2022-08-31T18:39:55.135Z,69.69
2022-08-31T18:42:45.485Z,71.62
2022-08-31T18:45:15.639Z,72.92
2022-08-31T18:47:42.969Z,73.68
2022-08-31T18:50:10.035Z,75.19
2022-08-31T18:52:40.453Z,75.73
2022-08-31T18:55:15.588Z,76.39
2022-08-31T18:57:48.874Z,77.58
2022-08-31T19:00:17.858Z,78.66
2022-08-31T19:02:45.167Z,79.70
2022-08-31T19:05:15.741Z,80.17
2022-08-31T19:07:42.715Z,81.21
2022-08-31T19:10:13.196Z,82.25
2022-08-31T19:12:42.788Z,83.38
2022-08-31T19:15:12.106Z,84.84
2022-08-31T19:17:41.814Z,86.09
2022-08-31T19:20:10.377Z,86.80
2022-08-31T19:22:38.072Z,86.64
2022-08-31T19:25:07.147Z,87.67
2022-08-31T19:27:35.344Z,87.91
2022-08-31T19:30:06.110Z,87.79
2022-08-31T19:32:33.711Z,87.40
2022-08-31T19:35:00.514Z,86.41
2022-08-31T19:37:27.762Z,86.18
2022-08-31T19:39:54.607Z,85.65
2022-08-31T19:42:39.736Z,85.97
2022-08-31T19:45:24.389Z,86.48
2022-08-31T19:47:51.603Z,88.29
2022-08-31T19:50:18.765Z,88.42
2022-08-31T19:52:46.067Z,88.85
2022-08-31T19:55:13.267Z,89.55
2022-08-31T19:57:43.542Z,91.07
2022-08-31T20:00:11.902Z,91.73
2022-08-31T20:02:40.317Z,92.36
2022-08-31T20:05:07.998Z,92.56
2022-08-31T20:07:35.875Z,92.55
2022-08-31T20:10:03.255Z,92.71
2022-08-31T20:12:30.307Z,92.92
2022-08-31T20:14:57.206Z,92.81
2022-08-31T20:17:24.281Z,94.27
2022-08-31T20:19:52.234Z,97.22
2022-08-31T20:22:21.379Z,97.40
2022-08-31T20:24:48.514Z,97.88
2022-08-31T20:27:18.372Z,98.79
2022-08-31T20:29:45.484Z,99.14
2022-08-31T20:32:12.346Z,100.00
2022-08-31T20:34:39.372Z,100.00
2022-08-31T20:37:07.599Z,100.00
2022-08-31T20:39:35.565Z,100.00
2022-08-31T20:42:03.658Z,100.00
2022-08-31T20:44:34.903Z,100.00
2022-08-31T20:47:27.182Z,100.00
2022-08-31T20:49:59.846Z,100.00
2022-08-31T20:52:32.480Z,100.00
2022-08-31T20:55:02.487Z,100.00
2022-08-31T20:57:34.227Z,100.00
2022-08-31T21:00:05.202Z,100.00
2022-08-31T21:02:33.336Z,100.00
2022-08-31T21:05:26.834Z,100.00
2022-08-31T21:07:49.074Z,100.00
2022-08-31T21:10:15.912Z,100.00
2022-08-31T21:12:49.140Z,100.00
2022-08-31T21:15:18.175Z,100.00
2022-08-31T21:17:46.092Z,100.00
2022-08-31T21:20:13.090Z,100.00
2022-08-31T21:22:40.127Z,100.00
2022-08-31T21:25:12.645Z,100.00
2022-08-31T21:27:42.299Z,100.00
2022-08-31T21:30:11.045Z,100.00
2022-08-31T21:32:41.735Z,100.00
2022-08-31T21:35:10.563Z,100.00
2022-08-31T21:37:37.863Z,100.00
2022-08-31T21:40:06.056Z,100.00
2022-08-31T21:42:33.047Z,100.00
2022-08-31T21:45:00.051Z,100.00
2022-08-31T21:47:29.029Z,100.00
2022-08-31T21:49:55.845Z,100.00
2022-08-31T21:52:22.916Z,100.00
2022-08-31T21:54:49.815Z,100.00
2022-08-31T21:57:17.865Z,100.00
2022-08-31T21:59:44.907Z,100.00
2022-08-31T22:02:12.121Z,100.00
2022-08-31T22:04:41.787Z,100.00
2022-08-31T22:07:09.805Z,100.00
2022-08-31T22:09:37.525Z,100.00
2022-08-31T22:12:07.198Z,100.00
2022-08-31T22:14:38.106Z,100.00
2022-08-31T22:17:07.045Z,100.00
2022-08-31T22:19:38.966Z,100.00
2022-08-31T22:22:11.971Z,100.00
2022-08-31T22:24:40.419Z,100.00
2022-08-31T22:27:09.906Z,100.00
2022-08-31T22:29:37.781Z,100.00
2022-08-31T22:32:08.716Z,100.00
2022-08-31T22:34:37.331Z,100.00
2022-08-31T22:37:05.281Z,100.00
2022-08-31T22:39:32.986Z,100.00
2022-08-31T22:42:01.587Z,100.00
2022-08-31T22:44:34.233Z,100.00
2022-08-31T22:47:02.417Z,100.00
2022-08-31T22:49:29.316Z,100.00
2022-08-31T22:51:57.016Z,100.00
2022-08-31T22:54:24.740Z,100.00
2022-08-31T22:56:52.358Z,100.00
2022-08-31T22:59:26.218Z,100.00
2022-08-31T23:01:57.315Z,100.00
2022-08-31T23:04:26.384Z,100.00
2022-08-31T23:06:53.375Z,100.00
2022-08-31T23:09:22.022Z,100.00
2022-08-31T23:11:51.756Z,100.00
2022-08-31T23:14:21.312Z,100.00
2022-08-31T23:16:59.161Z,100.00
2022-08-31T23:19:40.380Z,100.00
2022-08-31T23:22:15.385Z,100.00
2022-08-31T23:24:48.637Z,100.00
2022-08-31T23:27:19.787Z,100.00
2022-08-31T23:29:50.261Z,100.00
2022-08-31T23:32:19.921Z,100.00
2022-08-31T23:34:50.655Z,100.00
2022-08-31T23:37:18.981Z,100.00
2022-08-31T23:39:46.607Z,100.00
2022-08-31T23:42:16.188Z,100.00
2022-08-31T23:44:46.500Z,100.00
2022-08-31T23:47:23.395Z,100.00
2022-08-31T23:49:51.458Z,100.00
2022-08-31T23:52:25.536Z,100.00
2022-08-31T23:54:54.742Z,100.00
2022-08-31T23:57:31.399Z,100.00
